Arabi, Georgia
Current Conditions -  °F | °C
As of 6:15 PM on Thursday 23 Oct 2014 (Local Time) from KCKF Reporting Station
Clear Clear  
Wind Chill: 70°   Ceiling: Unl
Heat Index: 70°   Visibility: 10mi
Dew Point: 42°   Wind: 5mph
Humidity: 36%   Direction: 330°NNW
Pressure: 30.03"   Gusts: NA
Location:  31.83°N, 83.74°W
Report Text: KCKF 232215Z AUTO 33004KT 10SM CLR 21/06 A3003 RMK AO2 T02120056
Loading
Personal Weather Stations






























Interactive Weather Map
Tropical Storm Tracking
New forecast layout! Learn more

10-Day Weather Forecast

Advertisements
Track Severe Weather on mobile